createdAt,value
2019-03-03T00:00:35.670Z,12.40
2019-03-03T00:03:04.279Z,12.40
2019-03-03T00:05:32.852Z,12.40
2019-03-03T00:08:01.318Z,12.30
2019-03-03T00:10:30.224Z,12.30
2019-03-03T00:12:58.763Z,12.30
2019-03-03T00:15:27.492Z,12.30
2019-03-03T00:17:56.279Z,12.30
2019-03-03T00:20:24.791Z,12.30
2019-03-03T00:22:53.276Z,12.30
2019-03-03T00:25:21.786Z,12.30
2019-03-03T00:27:50.255Z,12.30
2019-03-03T00:30:19.739Z,12.40
2019-03-03T00:32:48.225Z,12.40
2019-03-03T00:35:16.733Z,12.30
2019-03-03T00:37:55.555Z,12.30
2019-03-03T00:40:25.932Z,12.20
2019-03-03T00:42:59.171Z,12.30
2019-03-03T00:45:41.162Z,12.30
2019-03-03T00:48:14.054Z,12.40
2019-03-03T00:50:47.016Z,12.30
2019-03-03T00:53:17.150Z,12.30
2019-03-03T00:55:53.248Z,12.30
2019-03-03T00:58:24.738Z,12.30
2019-03-03T01:00:57.575Z,12.30
2019-03-03T01:03:27.659Z,12.30
2019-03-03T01:06:06.472Z,12.30
2019-03-03T01:08:49.713Z,12.30
2019-03-03T01:11:27.190Z,12.40
2019-03-03T01:14:13.575Z,12.40
2019-03-03T01:16:49.570Z,12.40
2019-03-03T01:19:36.687Z,12.40
2019-03-03T01:22:21.900Z,12.40
2019-03-03T01:24:52.076Z,12.40
2019-03-03T01:27:20.562Z,12.40
2019-03-03T01:29:49.052Z,12.40
2019-03-03T01:32:17.491Z,12.40
2019-03-03T01:34:45.987Z,12.30
2019-03-03T01:37:14.410Z,12.40
2019-03-03T01:39:42.913Z,12.30
2019-03-03T01:42:11.424Z,12.20
2019-03-03T01:44:39.883Z,12.20
2019-03-03T01:47:08.340Z,12.30
2019-03-03T01:49:36.875Z,12.40
2019-03-03T01:52:05.401Z,12.30
2019-03-03T01:54:33.881Z,12.20
2019-03-03T01:57:02.348Z,12.20
2019-03-03T01:59:30.803Z,12.20
2019-03-03T02:01:59.283Z,12.20
2019-03-03T02:04:27.702Z,12.20
2019-03-03T02:06:56.259Z,12.20
2019-03-03T02:09:25.135Z,12.20
2019-03-03T02:11:53.600Z,12.20
2019-03-03T02:14:22.044Z,12.10
2019-03-03T02:16:50.580Z,12.10
2019-03-03T02:19:19.007Z,12.10
2019-03-03T02:21:47.570Z,12.20
2019-03-03T02:24:16.494Z,12.20
2019-03-03T02:26:45.036Z,12.10
2019-03-03T02:29:13.543Z,12.10
2019-03-03T02:31:42.131Z,12.20
2019-03-03T02:34:10.569Z,12.20
2019-03-03T02:36:39.058Z,12.20
2019-03-03T02:39:12.663Z,12.30
2019-03-03T02:41:41.284Z,12.30
2019-03-03T02:44:09.768Z,12.30
2019-03-03T02:46:38.317Z,12.20
2019-03-03T02:49:06.749Z,12.20
2019-03-03T02:51:35.199Z,12.10
2019-03-03T02:54:03.723Z,12.10
2019-03-03T02:56:32.587Z,12.10
2019-03-03T02:59:01.110Z,12.10
2019-03-03T03:01:31.210Z,12.20
2019-03-03T03:03:59.652Z,12.20
2019-03-03T03:06:35.571Z,12.30
2019-03-03T03:09:07.727Z,12.30
2019-03-03T03:11:37.839Z,12.30
2019-03-03T03:14:10.620Z,12.40
2019-03-03T03:16:55.698Z,12.20
2019-03-03T03:19:42.398Z,12.30
2019-03-03T03:22:18.283Z,12.40
2019-03-03T03:24:51.147Z,12.30
2019-03-03T03:27:21.261Z,12.30
2019-03-03T03:29:54.546Z,12.30
2019-03-03T03:32:27.446Z,12.20
2019-03-03T03:35:03.360Z,12.30
2019-03-03T03:37:45.452Z,12.20
2019-03-03T03:40:34.870Z,12.20
2019-03-03T03:43:18.126Z,12.30
2019-03-03T03:46:04.520Z,12.20
2019-03-03T03:48:34.630Z,12.20
2019-03-03T03:51:07.743Z,12.10
2019-03-03T03:53:46.759Z,12.20
2019-03-03T03:56:19.536Z,12.20
2019-03-03T03:58:49.783Z,12.10
2019-03-03T04:01:19.939Z,12.10
2019-03-03T04:04:08.676Z,12.00
2019-03-03T04:06:47.257Z,12.00
2019-03-03T04:09:17.418Z,12.00
2019-03-03T04:11:50.356Z,12.00
2019-03-03T04:14:26.372Z,12.00
2019-03-03T04:17:12.702Z,12.10
2019-03-03T04:19:59.602Z,12.10
2019-03-03T04:22:51.810Z,12.00
2019-03-03T04:25:37.880Z,12.00
2019-03-03T04:28:13.252Z,11.90
2019-03-03T04:30:44.966Z,11.90
2019-03-03T04:33:18.614Z,12.00
2019-03-03T04:35:49.089Z,12.00
2019-03-03T04:38:33.891Z,12.00
2019-03-03T04:41:09.760Z,12.00
2019-03-03T04:43:54.825Z,11.90
2019-03-03T04:46:33.946Z,11.90
2019-03-03T04:49:07.004Z,12.00
2019-03-03T04:51:43.115Z,12.00
2019-03-03T04:54:29.812Z,12.00
2019-03-03T04:57:02.774Z,12.10
2019-03-03T04:59:32.851Z,12.10
2019-03-03T05:02:19.639Z,12.10
2019-03-03T05:04:58.745Z,12.10
2019-03-03T05:07:37.857Z,12.10
2019-03-03T05:10:09.398Z,12.00
2019-03-03T05:12:39.480Z,11.90
2019-03-03T05:15:24.222Z,12.00
2019-03-03T05:17:54.303Z,12.10
2019-03-03T05:20:22.769Z,12.00
2019-03-03T05:22:51.304Z,12.00
2019-03-03T05:25:19.738Z,12.10
2019-03-03T05:27:48.213Z,12.10
2019-03-03T05:30:16.782Z,12.20
2019-03-03T05:32:45.244Z,12.00
2019-03-03T05:35:13.676Z,11.90
2019-03-03T05:37:42.133Z,11.90
2019-03-03T05:40:10.566Z,12.00
2019-03-03T05:42:39.099Z,12.10
2019-03-03T05:45:07.870Z,12.10
2019-03-03T05:47:36.339Z,12.10
2019-03-03T05:50:06.211Z,12.20
2019-03-03T05:52:34.690Z,12.10
2019-03-03T05:55:03.658Z,12.10
2019-03-03T05:57:32.144Z,12.10
2019-03-03T06:00:00.668Z,12.10
2019-03-03T06:02:29.183Z,12.10
2019-03-03T06:04:57.658Z,12.10
2019-03-03T06:07:26.123Z,12.00
2019-03-03T06:09:54.561Z,12.10
2019-03-03T06:12:23.023Z,12.00
2019-03-03T06:14:51.464Z,12.10
2019-03-03T06:17:19.926Z,12.10
2019-03-03T06:19:48.355Z,12.20
2019-03-03T06:22:16.905Z,12.10
2019-03-03T06:24:45.343Z,12.10
2019-03-03T06:27:14.207Z,12.10
2019-03-03T06:29:42.659Z,12.10
2019-03-03T06:32:11.182Z,12.10
2019-03-03T06:34:39.626Z,12.20
2019-03-03T06:37:08.100Z,12.20
2019-03-03T06:39:36.537Z,12.30
2019-03-03T06:42:05.003Z,12.20
2019-03-03T06:44:33.463Z,12.20
2019-03-03T06:47:01.900Z,12.30
2019-03-03T06:49:30.362Z,12.40
2019-03-03T06:51:58.802Z,12.40
2019-03-03T06:54:27.269Z,12.40
2019-03-03T06:56:55.700Z,12.40
2019-03-03T06:59:24.248Z,12.40
2019-03-03T07:01:52.699Z,12.40
2019-03-03T07:04:21.146Z,12.40
2019-03-03T07:06:49.592Z,12.50
2019-03-03T07:09:18.040Z,12.60
2019-03-03T07:11:46.479Z,12.60
2019-03-03T07:14:15.690Z,12.60
2019-03-03T07:16:44.127Z,12.70
2019-03-03T07:19:12.596Z,12.70
2019-03-03T07:21:41.018Z,12.60
2019-03-03T07:24:09.503Z,12.50
2019-03-03T07:26:38.008Z,12.60
2019-03-03T07:29:06.477Z,12.50
2019-03-03T07:31:34.924Z,12.50
2019-03-03T07:34:03.447Z,12.60
2019-03-03T07:36:31.877Z,12.50
2019-03-03T07:39:00.332Z,12.40
2019-03-03T07:41:28.771Z,12.40
2019-03-03T07:43:57.242Z,12.40
2019-03-03T07:46:25.719Z,12.50
2019-03-03T07:48:54.233Z,12.50
2019-03-03T07:51:22.671Z,12.50
2019-03-03T07:53:51.171Z,12.50
2019-03-03T07:56:19.607Z,12.50
2019-03-03T07:58:48.132Z,12.70
2019-03-03T08:01:16.560Z,12.70
2019-03-03T08:03:45.059Z,12.80
2019-03-03T08:06:13.527Z,12.70
2019-03-03T08:08:42.044Z,12.80
2019-03-03T08:11:10.601Z,12.80
2019-03-03T08:13:39.088Z,12.90
2019-03-03T08:16:07.621Z,12.90
2019-03-03T08:18:36.050Z,12.90
2019-03-03T08:21:04.511Z,13.00
2019-03-03T08:23:33.279Z,13.10
2019-03-03T08:26:01.729Z,13.10
2019-03-03T08:28:30.165Z,13.10
2019-03-03T08:30:58.617Z,13.20
2019-03-03T08:33:27.054Z,13.20
2019-03-03T08:35:55.527Z,13.10
2019-03-03T08:38:23.970Z,13.00
2019-03-03T08:40:52.438Z,13.00
2019-03-03T08:43:22.606Z,13.10
2019-03-03T08:46:07.791Z,13.20
2019-03-03T08:48:37.862Z,13.30
2019-03-03T08:51:07.992Z,13.30
2019-03-03T08:53:38.074Z,13.30
2019-03-03T08:56:08.287Z,13.40
2019-03-03T08:58:56.496Z,13.50
2019-03-03T09:01:29.168Z,13.40
2019-03-03T09:03:59.282Z,13.40
2019-03-03T09:06:45.578Z,13.50
2019-03-03T09:09:31.848Z,13.50
2019-03-03T09:12:04.880Z,13.40
2019-03-03T09:14:35.026Z,13.50
2019-03-03T09:17:05.152Z,13.60
2019-03-03T09:19:35.236Z,13.60
2019-03-03T09:22:05.354Z,13.60
2019-03-03T09:24:41.521Z,13.60
2019-03-03T09:27:27.535Z,13.50
2019-03-03T09:29:57.643Z,13.60
2019-03-03T09:32:44.144Z,13.60
2019-03-03T09:35:20.239Z,13.60
2019-03-03T09:38:02.464Z,13.60
2019-03-03T09:40:32.546Z,13.60
2019-03-03T09:43:20.967Z,13.60
2019-03-03T09:45:53.878Z,13.60
2019-03-03T09:48:27.002Z,13.60
2019-03-03T09:50:59.544Z,13.60
2019-03-03T09:53:38.386Z,13.60
2019-03-03T09:56:14.170Z,13.70
2019-03-03T09:58:59.384Z,13.80
2019-03-03T10:01:32.639Z,13.90
2019-03-03T10:04:05.248Z,14.00
2019-03-03T10:06:51.686Z,14.10
2019-03-03T10:09:40.545Z,14.10
2019-03-03T10:12:16.678Z,14.10
2019-03-03T10:14:52.956Z,14.20
2019-03-03T10:17:23.124Z,14.20
2019-03-03T10:20:09.349Z,14.20
2019-03-03T10:22:39.576Z,14.20
2019-03-03T10:25:12.174Z,14.30
2019-03-03T10:27:44.872Z,14.30
2019-03-03T10:30:25.962Z,14.40
2019-03-03T10:32:59.042Z,14.30
2019-03-03T10:35:31.950Z,14.30
2019-03-03T10:38:02.083Z,14.30
2019-03-03T10:40:32.398Z,14.40
2019-03-03T10:43:08.567Z,14.50
2019-03-03T10:45:38.709Z,14.60
2019-03-03T10:48:27.143Z,14.80
2019-03-03T10:51:13.831Z,14.90
2019-03-03T10:53:46.631Z,15.10
2019-03-03T10:56:20.803Z,15.30
2019-03-03T10:58:50.985Z,15.60
2019-03-03T11:01:21.123Z,15.80
2019-03-03T11:03:54.008Z,16.00
2019-03-03T11:06:39.456Z,16.20
2019-03-03T11:09:15.236Z,16.50
2019-03-03T11:12:02.738Z,16.60
2019-03-03T11:14:35.531Z,16.50
2019-03-03T11:17:06.271Z,16.50
2019-03-03T11:19:36.383Z,16.50
2019-03-03T11:22:12.668Z,16.40
2019-03-03T11:24:45.721Z,16.30
2019-03-03T11:27:21.535Z,16.20
2019-03-03T11:30:01.323Z,16.10
2019-03-03T11:32:40.613Z,16.10
2019-03-03T11:35:20.344Z,16.00
2019-03-03T11:37:53.430Z,15.90
2019-03-03T11:40:29.484Z,15.90
2019-03-03T11:43:08.212Z,15.90
2019-03-03T11:45:38.379Z,15.90
2019-03-03T11:48:11.192Z,15.90
2019-03-03T11:50:56.526Z,15.90
2019-03-03T11:53:35.821Z,15.80
2019-03-03T11:56:08.961Z,15.90
2019-03-03T11:58:50.985Z,15.90
2019-03-03T12:01:37.585Z,15.90
2019-03-03T12:04:23.999Z,15.70
2019-03-03T12:07:00.037Z,15.80
2019-03-03T12:09:30.119Z,15.90
2019-03-03T12:12:03.000Z,16.00
2019-03-03T12:14:33.175Z,16.00
2019-03-03T12:17:03.426Z,16.10
2019-03-03T12:19:36.751Z,16.10
2019-03-03T12:22:08.887Z,16.10
2019-03-03T12:24:39.108Z,16.00
2019-03-03T12:27:09.301Z,16.00
2019-03-03T12:29:42.677Z,15.90
2019-03-03T12:32:12.802Z,15.90
2019-03-03T12:34:48.982Z,15.80
2019-03-03T12:37:19.888Z,15.70
2019-03-03T12:40:08.324Z,15.60
2019-03-03T12:42:41.382Z,15.60
2019-03-03T12:45:23.455Z,15.50
2019-03-03T12:48:10.007Z,15.40
2019-03-03T12:50:46.071Z,15.30
2019-03-03T12:53:32.446Z,15.20
2019-03-03T12:56:11.671Z,15.20
2019-03-03T12:58:58.338Z,15.10
2019-03-03T13:01:43.139Z,15.10
2019-03-03T13:04:22.829Z,15.00
2019-03-03T13:06:56.023Z,14.90
2019-03-03T13:09:28.918Z,14.90
2019-03-03T13:12:16.959Z,14.90
2019-03-03T13:15:03.013Z,14.90
2019-03-03T13:17:35.594Z,14.80
2019-03-03T13:20:17.602Z,14.80
2019-03-03T13:22:53.430Z,14.80
2019-03-03T13:25:23.663Z,14.70
2019-03-03T13:27:59.494Z,14.70
2019-03-03T13:30:29.644Z,14.70
2019-03-03T13:32:59.737Z,14.70
2019-03-03T13:35:35.399Z,14.60
2019-03-03T13:38:05.658Z,14.60
2019-03-03T13:40:38.591Z,14.70
2019-03-03T13:43:07.116Z,14.80
2019-03-03T13:45:35.831Z,14.90
2019-03-03T13:48:04.725Z,14.90
2019-03-03T13:50:34.128Z,15.00
2019-03-03T13:53:02.576Z,15.20
2019-03-03T13:55:31.102Z,15.20
2019-03-03T13:57:59.695Z,15.20
2019-03-03T14:00:28.222Z,15.20
2019-03-03T14:02:56.726Z,15.10
2019-03-03T14:05:25.298Z,15.10
2019-03-03T14:07:53.843Z,15.10
2019-03-03T14:10:22.406Z,15.00
2019-03-03T14:12:50.947Z,15.00
2019-03-03T14:15:20.110Z,15.00
2019-03-03T14:17:48.736Z,14.90
2019-03-03T14:20:19.445Z,14.80
2019-03-03T14:22:48.043Z,14.90
2019-03-03T14:25:16.973Z,14.90
2019-03-03T14:27:45.519Z,14.90
2019-03-03T14:30:19.568Z,14.80
2019-03-03T14:32:48.139Z,14.80
2019-03-03T14:35:17.306Z,14.80
2019-03-03T14:37:45.866Z,14.80
2019-03-03T14:40:17.090Z,14.80
2019-03-03T14:42:45.763Z,14.70
2019-03-03T14:45:18.443Z,14.70
2019-03-03T14:47:47.322Z,14.70
2019-03-03T14:50:21.069Z,14.70
2019-03-03T14:52:54.625Z,14.70
2019-03-03T14:55:23.139Z,14.70
2019-03-03T14:57:51.704Z,14.70
2019-03-03T15:00:28.534Z,14.70
2019-03-03T15:02:58.091Z,14.70
2019-03-03T15:05:26.647Z,14.70
2019-03-03T15:07:55.464Z,14.80
2019-03-03T15:10:24.096Z,14.80
2019-03-03T15:12:52.621Z,14.90
2019-03-03T15:15:29.468Z,14.90
2019-03-03T15:17:58.004Z,15.00
2019-03-03T15:20:26.514Z,14.90
2019-03-03T15:22:54.956Z,14.90
2019-03-03T15:25:23.495Z,15.00
2019-03-03T15:27:52.072Z,15.00
2019-03-03T15:30:22.741Z,15.00
2019-03-03T15:32:51.346Z,14.90
2019-03-03T15:35:20.147Z,14.80
2019-03-03T15:37:48.879Z,14.70
2019-03-03T15:40:19.675Z,14.60
2019-03-03T15:42:48.271Z,14.60
2019-03-03T15:45:21.800Z,14.60
2019-03-03T15:47:50.378Z,14.70
2019-03-03T15:50:20.857Z,14.80
2019-03-03T15:52:49.436Z,14.70
2019-03-03T15:55:19.667Z,14.80
2019-03-03T15:57:48.275Z,14.80
2019-03-03T16:00:25.374Z,14.90
2019-03-03T16:02:53.959Z,14.90
2019-03-03T16:05:22.606Z,14.90
2019-03-03T16:07:51.154Z,14.90
2019-03-03T16:10:22.870Z,14.80
2019-03-03T16:12:51.407Z,14.90
2019-03-03T16:15:20.054Z,15.00
2019-03-03T16:17:48.572Z,15.00
2019-03-03T16:20:21.816Z,15.00
2019-03-03T16:22:50.345Z,14.90
2019-03-03T16:25:23.446Z,14.80
2019-03-03T16:27:51.922Z,14.70
2019-03-03T16:30:21.552Z,14.70
2019-03-03T16:32:50.310Z,14.70
2019-03-03T16:35:18.874Z,14.70
2019-03-03T16:37:47.563Z,14.70
2019-03-03T16:40:20.641Z,14.60
2019-03-03T16:42:49.264Z,14.60
2019-03-03T16:45:18.439Z,14.60
2019-03-03T16:47:47.044Z,14.60
2019-03-03T16:50:23.030Z,14.70
2019-03-03T16:52:52.264Z,14.70
2019-03-03T16:55:21.523Z,14.60
2019-03-03T16:57:50.120Z,14.60
2019-03-03T17:00:23.756Z,14.50
2019-03-03T17:02:52.441Z,14.40
2019-03-03T17:05:26.166Z,14.50
2019-03-03T17:07:54.757Z,14.50
2019-03-03T17:10:23.251Z,14.40
2019-03-03T17:12:51.853Z,14.40
2019-03-03T17:15:39.830Z,14.40
2019-03-03T17:18:08.431Z,14.50
2019-03-03T17:20:36.874Z,14.50
2019-03-03T17:23:05.340Z,14.40
2019-03-03T17:25:33.936Z,14.40
2019-03-03T17:28:02.523Z,14.40
2019-03-03T17:30:31.166Z,14.50
2019-03-03T17:32:59.706Z,14.50
2019-03-03T17:35:28.166Z,14.40
2019-03-03T17:37:56.959Z,14.40
2019-03-03T17:40:26.657Z,14.50
2019-03-03T17:42:55.222Z,14.40
2019-03-03T17:45:24.704Z,14.40
2019-03-03T17:47:53.283Z,14.40
2019-03-03T17:50:25.951Z,14.40
2019-03-03T17:52:54.387Z,14.40
2019-03-03T17:55:22.978Z,14.40
2019-03-03T17:57:51.418Z,14.50
2019-03-03T18:00:25.923Z,14.60
2019-03-03T18:02:54.426Z,14.60
2019-03-03T18:05:23.042Z,14.60
2019-03-03T18:07:51.623Z,14.60
2019-03-03T18:10:20.326Z,14.60
2019-03-03T18:12:49.076Z,14.60
2019-03-03T18:15:18.177Z,14.60
2019-03-03T18:17:46.691Z,14.60
2019-03-03T18:20:19.338Z,14.50
2019-03-03T18:22:48.034Z,14.50
2019-03-03T18:25:17.992Z,14.50
2019-03-03T18:27:46.757Z,14.50
2019-03-03T18:30:17.934Z,14.50
2019-03-03T18:32:46.398Z,14.50
2019-03-03T18:35:15.134Z,14.50
2019-03-03T18:37:43.579Z,14.50
2019-03-03T18:40:14.853Z,14.50
2019-03-03T18:42:43.351Z,14.50
2019-03-03T18:45:14.476Z,14.50
2019-03-03T18:47:42.934Z,14.50
2019-03-03T18:50:17.507Z,14.60
2019-03-03T18:52:46.319Z,14.60
2019-03-03T18:55:14.812Z,14.50
2019-03-03T18:57:43.430Z,14.50
2019-03-03T19:00:17.442Z,14.50
2019-03-03T19:02:45.895Z,14.50
2019-03-03T19:05:14.672Z,14.60
2019-03-03T19:07:43.187Z,14.60
2019-03-03T19:10:35.079Z,14.60
2019-03-03T19:13:03.655Z,14.70
2019-03-03T19:15:33.388Z,14.70
2019-03-03T19:18:02.307Z,14.70
2019-03-03T19:20:30.879Z,14.70
2019-03-03T19:22:59.361Z,14.70
2019-03-03T19:25:27.853Z,14.70
2019-03-03T19:27:56.401Z,14.70
2019-03-03T19:30:28.931Z,14.60
2019-03-03T19:33:19.841Z,14.60
2019-03-03T19:35:48.353Z,14.60
2019-03-03T19:38:16.831Z,14.60
2019-03-03T19:40:45.265Z,14.60
2019-03-03T19:43:13.736Z,14.60
2019-03-03T19:45:44.212Z,14.60
2019-03-03T19:48:12.671Z,14.60
2019-03-03T19:50:41.110Z,14.60
2019-03-03T19:53:09.775Z,14.50
2019-03-03T19:55:38.278Z,14.50
2019-03-03T19:58:06.827Z,14.60
2019-03-03T20:00:39.058Z,14.60
2019-03-03T20:03:09.540Z,14.70
2019-03-03T20:05:38.029Z,14.70
2019-03-03T20:08:07.221Z,14.70
2019-03-03T20:10:35.978Z,14.70
2019-03-03T20:13:04.809Z,14.70
2019-03-03T20:15:33.668Z,14.60
2019-03-03T20:18:02.208Z,14.50
2019-03-03T20:20:31.055Z,14.50
2019-03-03T20:22:59.502Z,14.40
2019-03-03T20:25:28.240Z,14.40
2019-03-03T20:27:56.693Z,14.40
2019-03-03T20:30:25.841Z,14.40
2019-03-03T20:32:54.328Z,14.30
2019-03-03T20:35:23.054Z,14.30
2019-03-03T20:37:51.689Z,14.20
2019-03-03T20:40:27.313Z,14.20
2019-03-03T20:42:56.521Z,14.20
2019-03-03T20:45:32.437Z,14.20
2019-03-03T20:48:01.156Z,14.10
2019-03-03T20:50:29.877Z,14.00
2019-03-03T20:53:02.746Z,13.90
2019-03-03T20:55:32.412Z,13.90
2019-03-03T20:58:00.968Z,13.80
2019-03-03T21:00:30.826Z,13.80
2019-03-03T21:02:59.599Z,13.70
2019-03-03T21:05:28.435Z,13.70
2019-03-03T21:07:57.018Z,13.70
2019-03-03T21:10:30.404Z,13.80
2019-03-03T21:12:58.984Z,13.90
2019-03-03T21:15:27.635Z,13.90
2019-03-03T21:17:56.107Z,14.00
2019-03-03T21:20:25.282Z,13.90
2019-03-03T21:22:53.740Z,13.90
2019-03-03T21:25:22.418Z,14.00
2019-03-03T21:27:50.975Z,14.00
2019-03-03T21:30:23.788Z,14.10
2019-03-03T21:32:52.379Z,14.10
2019-03-03T21:35:21.563Z,14.10
2019-03-03T21:37:50.079Z,14.00
2019-03-03T21:40:19.995Z,13.90
2019-03-03T21:42:48.503Z,14.00
2019-03-03T21:45:21.498Z,14.10
2019-03-03T21:47:50.029Z,14.00
2019-03-03T21:50:29.789Z,14.00
2019-03-03T21:52:58.217Z,14.10
2019-03-03T21:55:26.830Z,14.10
2019-03-03T21:57:55.315Z,14.10
2019-03-03T22:00:35.977Z,14.20
2019-03-03T22:03:05.053Z,14.20
2019-03-03T22:05:33.654Z,14.20
2019-03-03T22:08:02.146Z,14.20
2019-03-03T22:10:31.363Z,14.10
2019-03-03T22:13:04.163Z,13.90
2019-03-03T22:15:33.039Z,13.80
2019-03-03T22:18:01.559Z,13.70
2019-03-03T22:20:29.997Z,13.70
2019-03-03T22:22:58.517Z,13.80
2019-03-03T22:25:26.978Z,13.80
2019-03-03T22:27:55.497Z,13.70
2019-03-03T22:30:23.916Z,13.70
2019-03-03T22:32:52.467Z,13.70
2019-03-03T22:35:20.955Z,13.70
2019-03-03T22:37:49.417Z,13.70
2019-03-03T22:40:20.459Z,13.70
2019-03-03T22:42:48.926Z,13.70
2019-03-03T22:45:18.107Z,13.60
2019-03-03T22:47:47.847Z,13.60
2019-03-03T22:50:17.529Z,13.60
2019-03-03T22:52:45.976Z,13.60
2019-03-03T22:55:16.289Z,13.80
2019-03-03T22:57:44.873Z,13.80
2019-03-03T23:00:33.571Z,13.70
2019-03-03T23:03:02.101Z,13.70
2019-03-03T23:05:39.306Z,13.60
2019-03-03T23:08:10.827Z,13.50
2019-03-03T23:11:00.536Z,13.40
2019-03-03T23:13:34.750Z,13.40
2019-03-03T23:16:18.154Z,13.30
2019-03-03T23:18:55.421Z,13.30
2019-03-03T23:21:44.998Z,13.20
2019-03-03T23:24:39.291Z,13.30
2019-03-03T23:27:07.796Z,13.40
2019-03-03T23:29:36.244Z,13.40
2019-03-03T23:32:04.927Z,13.40
2019-03-03T23:34:33.388Z,13.50
2019-03-03T23:37:01.815Z,13.50
2019-03-03T23:39:30.262Z,13.50
2019-03-03T23:41:58.690Z,13.40
2019-03-03T23:44:27.274Z,13.50
2019-03-03T23:46:55.708Z,13.50
2019-03-03T23:49:24.211Z,13.60
2019-03-03T23:51:52.651Z,13.60
2019-03-03T23:54:21.090Z,13.70
2019-03-03T23:56:49.519Z,13.70
2019-03-03T23:59:17.964Z,13.60
